lmml 14/32
Posts: 2358
Joined: Tue Jan 30, 2001 2:27 am

TAF/METAR For SOF (LBSF)

Thu Feb 24, 2005 4:38 am

Would someone kindly furnish me with a valid TAF and METAR for SOF (LBSF) please?
 
fxra
Posts: 600
Joined: Fri Jul 16, 1999 1:03 am

RE: TAF/METAR For SOF (LBSF)

Thu Feb 24, 2005 4:43 am

LBSF 231930Z 09005MPS 8000 FEW070 SCT200 03/01 Q1010 NOSIG 9929//95

LBSF 231904 VRB02MPS 4000 BR NSC
TEMPO 1922 2000 BR
BECMG 2224 1200 BR SCT004
TEMPO 0204 0600 FG SCT002

brgds
Visualize Whirled Peas
 
lmml 14/32
Posts: 2358
Joined: Tue Jan 30, 2001 2:27 am

RE: TAF/METAR For SOF (LBSF)

Thu Feb 24, 2005 4:47 am

Thanks. Not very good news for my nightflight in few hours time! I can expect a long delay then.